Time;durP1;ratioP1;P1;durP2;ratioP2;P2;SDS_P1;SDS_P2;PMS_P1;PMS_P2;Temp;Humidity;BMP_temperature;BMP_pressure;BME280_temperature;BME280_humidity;BME280_pressure;Samples;Min_cycle;Max_cycle;Signal;HPM_P1;HPM_P2
2021/07/25 00:01:22;;;;;;;11.35;10.45;;;;;;;21.83;58.08;99376.94;10533763;28;20060;-75
2021/07/25 00:06:24;;;;;;;11.27;10.57;;;;;;;21.45;58.85;99374.97;10534316;28;20070;-75
2021/07/25 00:11:26;;;;;;;11.20;10.40;;;;;;;21.30;58.70;99369.94;10517088;28;20070;-73
2021/07/25 00:16:28;;;;;;;10.95;10.25;;;;;;;21.22;58.54;99367.09;10534013;28;20393;-74
2021/07/25 00:21:30;;;;;;;10.75;10.05;;;;;;;21.10;58.42;99362.78;10533739;28;20121;-75
2021/07/25 00:26:44;;;;;;;10.73;9.98;;;;;;;21.06;58.54;99362.22;10533090;28;20036;-74
2021/07/25 00:31:46;;;;;;;10.98;10.00;;;;;;;20.90;59.40;99367.19;10534257;28;20461;-74
2021/07/25 00:36:47;;;;;;;11.25;10.50;;;;;;;20.80;59.55;99363.59;10534398;28;20040;-75
2021/07/25 00:41:49;;;;;;;11.20;10.48;;;;;;;20.68;60.46;99375.31;10533498;28;20118;-74
2021/07/25 00:46:59;;;;;;;10.80;10.20;;;;;;;20.62;60.86;99374.00;10523109;28;20114;-74
2021/07/25 00:52:04;;;;;;;14.25;10.50;;;;;;;20.57;59.57;99374.38;10523640;28;20051;-74
2021/07/25 00:57:05;;;;;;;11.48;10.68;;;;;;;20.55;59.31;99365.66;10543209;28;20048;-74
2021/07/25 01:02:07;;;;;;;10.60;9.73;;;;;;;20.49;59.92;99362.66;10522048;28;20075;-73
2021/07/25 01:07:20;;;;;;;11.05;10.35;;;;;;;20.52;60.19;99357.91;10540019;28;20147;-75
2021/07/25 01:12:43;;;;;;;10.38;9.70;;;;;;;20.47;59.86;99357.41;10540460;28;20054;-75
2021/07/25 01:17:44;;;;;;;9.88;9.27;;;;;;;20.55;58.96;99352.31;10541222;28;20090;-75
2021/07/25 01:22:50;;;;;;;10.00;9.40;;;;;;;20.62;58.83;99356.16;10540127;28;20063;-74
2021/07/25 01:28:03;;;;;;;9.32;8.73;;;;;;;20.70;58.55;99344.81;10538688;28;20051;-74
2021/07/25 01:33:11;;;;;;;9.98;9.38;;;;;;;20.59;59.28;99337.72;10538826;28;20106;-74
2021/07/25 01:38:13;;;;;;;10.20;9.60;;;;;;;20.59;59.04;99328.88;10522365;28;20059;-74
2021/07/25 01:43:15;;;;;;;10.07;9.38;;;;;;;20.65;59.14;99326.53;10520187;28;20048;-75
2021/07/25 01:48:16;;;;;;;10.00;9.30;;;;;;;20.94;58.63;99325.88;10520953;28;20158;-74
2021/07/25 01:53:18;;;;;;;10.63;9.80;;;;;;;20.59;59.64;99319.03;10537892;28;20417;-74
2021/07/25 01:58:19;;;;;;;10.32;9.63;;;;;;;20.54;59.75;99321.25;10537913;28;20048;-74
2021/07/25 02:03:25;;;;;;;10.32;9.63;;;;;;;20.74;58.00;99326.72;10540572;28;20036;-75
2021/07/25 02:08:27;;;;;;;9.70;8.93;;;;;;;20.45;60.25;99334.47;10521021;28;20047;-74
2021/07/25 02:13:29;;;;;;;10.63;9.68;;;;;;;20.57;60.12;99337.00;10537911;28;20092;-74
2021/07/25 02:18:30;;;;;;;10.98;10.15;;;;;;;20.69;59.31;99342.28;10537946;28;20040;-75
2021/07/25 02:23:32;;;;;;;10.45;9.75;;;;;;;20.36;60.84;99344.97;10536994;28;20122;-74
2021/07/25 02:28:35;;;;;;;10.63;9.85;;;;;;;20.33;60.33;99352.38;10539937;28;20049;-73
2021/07/25 02:33:37;;;;;;;9.23;8.55;;;;;;;20.25;60.77;99357.50;10536734;28;20425;-75
2021/07/25 02:38:38;;;;;;;9.88;9.18;;;;;;;20.21;61.49;99372.91;10536534;28;20089;-74
2021/07/25 02:43:40;;;;;;;11.07;10.32;;;;;;;20.17;61.14;99379.47;10536638;28;20425;-74
2021/07/25 02:48:42;;;;;;;9.68;9.00;;;;;;;20.40;59.65;99380.25;10537209;28;20106;-75
2021/07/25 02:53:43;;;;;;;9.35;8.73;;;;;;;20.39;58.13;99390.06;10536542;28;20532;-73
2021/07/25 02:58:45;;;;;;;9.57;8.88;;;;;;;20.34;59.07;99383.44;10535332;28;20048;-75
2021/07/25 03:03:46;;;;;;;8.85;8.23;;;;;;;20.37;58.06;99380.53;10535709;28;20474;-75
2021/07/25 03:08:48;;;;;;;9.10;8.30;;;;;;;20.48;56.81;99398.34;10534850;28;20101;-73
2021/07/25 03:13:49;;;;;;;8.80;8.20;;;;;;;20.38;57.44;99398.22;10538232;28;20114;-74
2021/07/25 03:18:51;;;;;;;9.85;9.20;;;;;;;20.22;58.46;99389.78;10535391;28;20052;-74
2021/07/25 03:23:53;;;;;;;9.25;8.55;;;;;;;20.27;57.32;99398.25;10515745;28;20074;-74
2021/07/25 03:28:54;;;;;;;9.73;9.02;;;;;;;20.52;58.02;99389.09;10516131;28;20465;-75
2021/07/25 03:33:58;;;;;;;8.73;8.13;;;;;;;20.45;58.34;99380.69;10535479;28;20482;-75
2021/07/25 03:39:00;;;;;;;9.23;8.52;;;;;;;20.42;58.40;99395.16;10534575;28;20040;-73
2021/07/25 03:44:02;;;;;;;10.10;9.20;;;;;;;20.18;59.61;99394.50;10533809;28;20052;-74
2021/07/25 03:49:03;;;;;;;9.20;8.60;;;;;;;20.09;60.34;99398.78;10533732;28;20105;-74
2021/07/25 03:54:06;;;;;;;9.43;8.82;;;;;;;20.10;60.40;99397.81;10533115;28;20044;-74
2021/07/25 03:59:07;;;;;;;10.15;9.45;;;;;;;20.14;61.28;99401.94;10534338;28;20047;-75
2021/07/25 04:04:09;;;;;;;10.48;9.68;;;;;;;19.98;61.83;99412.16;10533734;28;20473;-76
2021/07/25 04:09:10;;;;;;;10.05;9.35;;;;;;;19.96;62.43;99418.56;10532474;28;20036;-74
2021/07/25 04:14:12;;;;;;;10.25;9.63;;;;;;;20.04;61.85;99422.31;10532585;28;20044;-75
2021/07/25 04:19:14;;;;;;;9.73;9.02;;;;;;;19.96;63.16;99416.75;10541568;28;20036;-74
2021/07/25 04:24:16;;;;;;;9.30;8.70;;;;;;;19.94;63.47;99413.34;10527223;28;20044;-74
2021/07/25 04:29:18;;;;;;;9.38;8.77;;;;;;;20.03;62.34;99417.94;10545689;28;20102;-74
2021/07/25 04:34:19;;;;;;;10.00;9.30;;;;;;;20.03;61.26;99407.28;10546396;28;20401;-74
2021/07/25 04:39:21;;;;;;;9.52;8.93;;;;;;;20.51;60.70;99404.28;10549273;28;20106;-74
2021/07/25 04:44:35;;;;;;;10.80;10.00;;;;;;;20.41;61.01;99404.16;10546193;28;20146;-74
2021/07/25 04:49:42;;;;;;;10.35;9.65;;;;;;;20.44;62.15;99392.38;10546554;28;20052;-74
2021/07/25 04:54:45;;;;;;;8.93;8.38;;;;;;;20.51;61.63;99393.59;10545868;28;20078;-75
2021/07/25 04:59:49;;;;;;;9.18;8.57;;;;;;;20.65;60.09;99395.13;10545903;28;20398;-74
2021/07/25 05:04:51;;;;;;;10.20;9.40;;;;;;;20.76;60.86;99387.06;10529175;28;20051;-74
2021/07/25 05:09:53;;;;;;;10.32;9.63;;;;;;;21.03;60.01;99393.69;10545582;28;20446;-74
2021/07/25 05:15:18;;;;;;;9.25;8.65;;;;;;;21.04;60.77;99390.06;10545116;28;20074;-75
2021/07/25 05:20:28;;;;;;;9.48;8.77;;;;;;;21.62;57.90;99401.09;10545237;28;20044;-75
2021/07/25 05:25:31;;;;;;;11.18;10.32;;;;;;;21.29;59.83;99381.59;10529449;28;20048;-74
2021/07/25 05:30:38;;;;;;;9.60;9.00;;;;;;;21.70;57.83;99387.88;10505207;28;20040;-74
2021/07/25 05:35:39;;;;;;;;;;;;;;;21.59;59.04;99375.44;10540217;28;20040;-74
2021/07/25 05:40:41;;;;;;;9.85;9.25;;;;;;;21.72;57.99;99385.06;10539078;28;19959;-74
2021/07/25 05:45:44;;;;;;;9.77;9.15;;;;;;;21.99;57.78;99398.66;10540284;28;20058;-74
2021/07/25 05:50:45;;;;;;;10.82;10.02;;;;;;;22.31;56.74;99400.31;10538270;28;20044;-74
2021/07/25 05:55:47;;;;;;;9.73;9.13;;;;;;;22.48;57.09;99402.28;10520614;28;20048;-74
2021/07/25 06:00:48;;;;;;;9.82;9.23;;;;;;;22.64;56.25;99404.44;10519753;28;20051;-74
2021/07/25 06:05:50;;;;;;;9.88;9.07;;;;;;;23.40;53.82;99397.28;10538557;28;20098;-73
2021/07/25 06:10:52;;;;;;;9.65;9.02;;;;;;;23.76;52.47;99407.34;10539243;28;20048;-73
2021/07/25 06:15:54;;;;;;;9.55;8.88;;;;;;;23.83;52.41;99405.75;10537366;28;20112;-73
2021/07/25 06:20:55;;;;;;;8.82;8.23;;;;;;;24.47;51.24;99401.28;10518762;28;20046;-73
2021/07/25 06:25:57;;;;;;;8.88;8.18;;;;;;;25.10;50.35;99415.50;10537775;28;20054;-74
2021/07/25 06:30:58;;;;;;;8.50;7.95;;;;;;;25.46;49.13;99409.19;10522021;28;20134;-73
2021/07/25 06:36:01;;;;;;;8.30;7.53;;;;;;;25.53;48.43;99419.13;10538018;28;20145;-73
2021/07/25 06:41:03;;;;;;;9.02;8.43;;;;;;;25.97;50.66;99418.19;10519251;28;20112;-73
2021/07/25 06:46:05;;;;;;;8.68;8.18;;;;;;;25.99;49.37;99414.34;10536874;28;20040;-74
2021/07/25 06:51:06;;;;;;;8.63;7.93;;;;;;;26.38;47.97;99401.13;10538291;28;20040;-74
2021/07/25 06:56:08;;;;;;;8.68;8.18;;;;;;;27.00;46.15;99403.41;10536079;28;20417;-73
2021/07/25 07:01:11;;;;;;;9.27;8.68;;;;;;;27.23;46.71;99402.75;10517102;28;20371;-74
2021/07/25 07:06:13;;;;;;;8.82;8.23;;;;;;;27.02;46.27;99409.47;10535779;28;20138;-74
2021/07/25 07:11:15;;;;;;;9.57;8.82;;;;;;;26.83;47.92;99413.38;10535343;28;20056;-74
2021/07/25 07:16:16;;;;;;;10.02;9.25;;;;;;;27.22;45.58;99419.94;10536858;28;20047;-74
2021/07/25 07:21:18;;;;;;;8.10;7.60;;;;;;;27.42;46.41;99416.72;10534986;28;20063;-73
2021/07/25 07:26:20;;;;;;;8.60;8.00;;;;;;;27.47;45.46;99424.28;10534584;28;20154;-74
2021/07/25 07:31:21;;;;;;;8.73;8.18;;;;;;;27.55;45.95;99429.69;10535024;28;20556;-74
2021/07/25 07:36:23;;;;;;;8.75;8.15;;;;;;;27.55;45.83;99426.13;10536946;28;20102;-74
2021/07/25 07:41:24;;;;;;;9.38;8.77;;;;;;;27.63;46.15;99426.97;10516238;28;20048;-74
2021/07/25 07:46:26;;;;;;;9.93;8.88;;;;;;;27.50;45.30;99433.91;10515935;28;20044;-75
2021/07/25 07:51:28;;;;;;;9.02;8.43;;;;;;;27.60;45.72;99430.00;10534360;28;20426;-73
2021/07/25 07:56:31;;;;;;;9.77;9.07;;;;;;;27.51;46.67;99422.94;10535921;28;20150;-74
2021/07/25 08:01:33;;;;;;;8.85;8.25;;;;;;;27.56;46.14;99420.56;10534584;28;20143;-74
2021/07/25 08:06:34;;;;;;;10.13;9.25;;;;;;;27.31;45.28;99422.44;10533764;28;20489;-74
2021/07/25 08:11:43;;;;;;;9.43;8.82;;;;;;;27.54;46.29;99414.50;10534363;28;20058;-75
2021/07/25 08:16:46;;;;;;;9.55;8.75;;;;;;;27.59;44.96;99417.53;10534498;28;20067;-74
2021/07/25 08:21:48;;;;;;;9.75;8.95;;;;;;;27.73;45.57;99413.28;10536411;28;20453;-74
2021/07/25 08:26:50;;;;;;;8.80;8.20;;;;;;;27.64;45.83;99411.59;10547189;22;20055;-73
2021/07/25 08:31:51;;;;;;;9.63;9.02;;;;;;;27.34;45.96;99424.81;10541269;28;20094;-73
2021/07/25 08:36:57;;;;;;;8.80;8.20;;;;;;;27.81;45.91;99417.81;10540840;28;20139;-75
2021/07/25 08:42:05;;;;;;;9.50;8.80;;;;;;;28.34;44.55;99416.22;10537915;28;20048;-75
2021/07/25 08:47:16;;;;;;;9.63;8.93;;;;;;;28.62;43.52;99416.56;10538356;28;20036;-75
2021/07/25 08:52:21;;;;;;;9.07;8.38;;;;;;;29.03;43.06;99409.00;10542078;28;20044;-75
2021/07/25 08:57:26;;;;;;;9.57;8.77;;;;;;;29.21;44.76;99427.59;10579273;28;20042;-74
2021/07/25 09:02:32;;;;;;;8.90;8.20;;;;;;;29.76;42.62;99415.56;10578335;28;20105;-75
2021/07/25 09:07:34;;;;;;;9.10;8.60;;;;;;;30.06;41.66;99410.09;10568781;28;20142;-75
2021/07/25 09:12:36;;;;;;;9.68;8.98;;;;;;;30.05;40.48;99411.13;10586510;28;20051;-74
2021/07/25 09:17:39;;;;;;;9.20;8.32;;;;;;;30.11;40.25;99410.38;10568391;28;20097;-75
2021/07/25 09:22:49;;;;;;;9.25;8.55;;;;;;;30.15;41.21;99407.13;10586479;28;20097;-75
2021/07/25 09:27:53;;;;;;;9.38;8.68;;;;;;;30.62;40.94;99402.19;10586625;28;20055;-74
2021/07/25 09:32:56;;;;;;;8.93;8.37;;;;;;;31.08;38.14;99415.41;10586074;28;20101;-73
2021/07/25 09:38:04;;;;;;;9.23;8.63;;;;;;;30.79;39.05;99405.53;10571885;27;20051;-75
2021/07/25 09:43:24;;;;;;;9.23;8.55;;;;;;;30.46;37.88;99402.44;10582247;28;20520;-75
2021/07/25 09:48:33;;;;;;;8.75;8.10;;;;;;;31.09;38.94;99409.78;10603032;27;20373;-75
2021/07/25 09:53:44;;;;;;;9.68;8.90;;;;;;;30.49;38.41;99399.34;10620246;27;20039;-73
2021/07/25 09:58:45;;;;;;;9.45;8.75;;;;;;;30.37;39.25;99402.59;10585977;28;20036;-73
2021/07/25 10:03:47;;;;;;;8.32;7.82;;;;;;;30.89;40.21;99403.31;10585448;28;20047;-74
2021/07/25 10:09:18;;;;;;;9.20;8.52;;;;;;;31.33;39.66;99388.66;10584049;28;20035;-75
2021/07/25 10:14:21;;;;;;;8.35;7.75;;;;;;;31.42;37.97;99387.47;10587947;27;20039;-74
2021/07/25 10:19:39;;;;;;;8.13;7.53;;;;;;;32.12;36.75;99388.28;10566916;28;20123;-74
2021/07/25 10:24:43;;;;;;;8.45;7.88;;;;;;;32.75;36.85;99388.84;10566175;28;20050;-75
2021/07/25 10:29:47;;;;;;;8.93;8.10;;;;;;;32.82;39.37;99389.72;10588324;27;20053;-74
2021/07/25 10:34:50;;;;;;;9.13;7.97;;;;;;;32.59;36.88;99378.41;10583942;28;20126;-74
2021/07/25 10:39:53;;;;;;;8.57;7.97;;;;;;;32.45;36.38;99379.38;10583288;28;20047;-76
2021/07/25 10:44:55;;;;;;;8.35;7.75;;;;;;;32.99;35.94;99375.72;10564457;28;20051;-76
2021/07/25 10:50:19;;;;;;;7.60;7.15;;;;;;;33.35;35.45;99384.28;10582435;28;20047;-75
2021/07/25 10:55:41;;;;;;;;;;;;;;;33.13;35.96;99386.38;10584046;28;20488;-75
2021/07/25 11:00:43;;;;;;;8.70;8.00;;;;;;;32.71;37.24;99381.31;10565650;28;20337;-74
2021/07/25 11:06:01;;;;;;;8.45;7.88;;;;;;;32.91;38.17;99379.50;10582924;28;20051;-73
2021/07/25 11:11:24;;;;;;;8.70;8.13;;;;;;;32.99;37.40;99383.91;10582462;28;20039;-73
2021/07/25 11:16:32;;;;;;;10.05;8.70;;;;;;;32.69;36.58;99369.81;10582244;28;20039;-74
2021/07/25 11:21:39;;;;;;;8.88;8.30;;;;;;;32.76;36.09;99373.38;10581436;28;20071;-73
2021/07/25 11:26:43;;;;;;;9.35;8.50;;;;;;;32.48;38.54;99381.72;10580068;28;20040;-75
2021/07/25 11:31:47;;;;;;;7.78;7.25;;;;;;;33.21;35.38;99370.91;10562615;28;20138;-72
2021/07/25 11:36:52;;;;;;;8.30;7.70;;;;;;;32.80;36.71;99371.91;10580524;28;20508;-73
2021/07/25 11:41:58;;;;;;;8.45;7.85;;;;;;;32.74;35.75;99367.31;10562103;28;20129;-73
2021/07/25 11:47:03;;;;;;;8.85;8.35;;;;;;;32.72;36.79;99362.09;10579933;28;20054;-70
2021/07/25 11:52:08;;;;;;;8.77;8.18;;;;;;;32.50;37.24;99371.47;10578367;28;20058;-71
2021/07/25 11:57:12;;;;;;;9.98;9.27;;;;;;;31.89;37.31;99381.28;10577295;28;20118;-72
2021/07/25 12:02:24;;;;;;;10.13;9.02;;;;;;;32.54;37.29;99370.00;10577939;28;20043;-71
2021/07/25 12:07:32;;;;;;;8.85;8.23;;;;;;;32.26;37.01;99361.97;10559574;28;20067;-71
2021/07/25 12:12:37;;;;;;;8.93;8.32;;;;;;;32.33;36.59;99357.38;10559009;28;20039;-72
2021/07/25 12:17:38;;;;;;;;;;;;;;;31.98;36.66;99359.38;10577851;28;20059;-72
2021/07/25 12:23:07;;;;;;;8.48;7.90;;;;;;;31.62;38.14;99355.00;10577667;28;19924;-71
2021/07/25 12:28:15;;;;;;;9.35;8.55;;;;;;;31.63;37.97;99349.34;10573504;28;20127;-71
2021/07/25 12:33:34;;;;;;;9.55;8.88;;;;;;;31.36;38.86;99345.66;10576924;28;20062;-72
2021/07/25 12:38:36;;;;;;;8.38;7.80;;;;;;;30.51;40.14;99338.47;10561152;28;20039;-71
2021/07/25 12:43:37;;;;;;;9.02;8.27;;;;;;;30.69;42.22;99348.88;10585471;28;20062;-71
2021/07/25 12:48:39;;;;;;;10.50;9.57;;;;;;;30.52;41.41;99345.56;10584745;28;20047;-71
2021/07/25 12:53:55;;;;;;;9.13;8.32;;;;;;;30.38;43.35;99351.91;10585235;28;20094;-72
2021/07/25 12:59:00;;;;;;;8.90;8.30;;;;;;;30.13;42.24;99360.34;10584754;28;20493;-71
2021/07/25 13:04:05;;;;;;;9.48;8.73;;;;;;;29.65;43.39;99351.84;10586991;28;20349;-72
2021/07/25 13:09:13;;;;;;;9.03;8.47;;;;;;;29.31;44.01;99346.16;10588186;28;20044;-70
2021/07/25 13:14:27;;;;;;;10.10;8.55;;;;;;;28.94;46.27;99358.66;10586070;28;20050;-71
2021/07/25 13:19:30;;;;;;;10.27;9.67;;;;;;;28.51;47.20;99363.75;10585809;28;20512;-71
2021/07/25 13:24:31;;;;;;;9.80;9.00;;;;;;;28.60;46.71;99367.25;10589625;28;20047;-72
2021/07/25 13:29:35;;;;;;;10.75;9.95;;;;;;;28.17;47.96;99374.94;10590335;28;20382;-71
2021/07/25 13:34:37;;;;;;;10.75;9.55;;;;;;;28.24;48.17;99377.75;10591423;28;20073;-71
2021/07/25 13:39:38;;;;;;;10.20;9.43;;;;;;;28.37;48.34;99376.16;10588491;28;20044;-71
2021/07/25 13:44:40;;;;;;;10.13;9.52;;;;;;;27.85;50.14;99382.19;10588626;28;20058;-71
2021/07/25 13:49:42;;;;;;;10.30;9.52;;;;;;;27.90;51.78;99392.47;10582928;27;20032;-70
2021/07/25 13:54:43;;;;;;;11.07;10.38;;;;;;;27.63;51.89;99386.47;10594493;27;20134;-71
2021/07/25 13:59:45;;;;;;;10.77;9.98;;;;;;;27.65;51.10;99392.50;10606678;27;20043;-71
2021/07/25 14:04:53;;;;;;;10.93;10.13;;;;;;;27.39;51.88;99395.44;10611308;27;20047;-71
2021/07/25 14:09:55;;;;;;;10.82;10.13;;;;;;;27.14;52.05;99408.16;10629104;27;20051;-72
2021/07/25 14:14:58;;;;;;;9.70;8.90;;;;;;;26.63;52.20;99417.38;10611224;27;20443;-71
2021/07/25 14:20:00;;;;;;;9.77;9.00;;;;;;;26.50;51.24;99417.88;10628398;27;20485;-71
2021/07/25 14:25:02;;;;;;;9.88;8.27;;;;;;;25.88;52.91;99409.25;10626953;27;20046;-72
2021/07/25 14:30:06;;;;;;;8.77;8.13;;;;;;;25.63;53.97;99406.41;10553388;22;20381;-74
2021/07/25 14:35:09;;;;;;;8.68;7.88;;;;;;;25.35;54.74;99402.22;10496850;28;20044;-74
2021/07/25 14:40:12;;;;;;;9.43;8.60;;;;;;;24.85;57.13;99400.13;10499893;28;20086;-74
2021/07/25 14:45:13;;;;;;;9.75;9.02;;;;;;;24.30;59.57;99402.94;10463297;28;20048;-74
2021/07/25 14:50:15;;;;;;;11.45;10.52;;;;;;;24.03;62.15;99399.28;10498653;28;20120;-74
2021/07/25 14:55:17;;;;;;;11.13;8.85;;;;;;;23.87;62.59;99393.75;10498964;28;20124;-75
2021/07/25 15:00:19;;;;;;;9.20;8.52;;;;;;;23.53;66.95;99388.06;10498296;28;20040;-75
2021/07/25 15:05:20;;;;;;;8.20;7.40;;;;;;;23.42;64.46;99381.06;10484949;28;20040;-77
2021/07/25 15:10:22;;;;;;;6.63;6.13;;;;;;;23.52;63.63;99391.75;10497818;28;20079;-77
2021/07/25 15:15:23;;;;;;;7.22;6.63;;;;;;;23.56;64.39;99395.81;10500513;28;20052;-77
2021/07/25 15:20:25;;;;;;;6.88;6.35;;;;;;;23.58;65.50;99386.63;10498560;28;20041;-76
2021/07/25 15:25:26;;;;;;;7.72;6.40;;;;;;;23.70;64.88;99381.97;10505973;28;20044;-77
2021/07/25 15:30:28;;;;;;;6.88;6.38;;;;;;;23.73;65.39;99380.78;10515150;28;20068;-77
2021/07/25 15:35:30;;;;;;;5.70;5.30;;;;;;;23.59;64.05;99360.63;10522053;28;20051;-77
2021/07/25 15:40:33;;;;;;;5.72;5.32;;;;;;;23.54;64.69;99353.03;10504314;28;20060;-77
2021/07/25 15:45:35;;;;;;;6.55;6.05;;;;;;;23.62;64.12;99350.47;10503813;28;20076;-76
2021/07/25 15:50:37;;;;;;;7.13;6.47;;;;;;;23.75;65.82;99362.72;10497224;28;20055;-76
2021/07/25 15:55:38;;;;;;;12.70;11.73;;;;;;;23.75;68.21;99394.94;10495687;28;20075;-77
2021/07/25 16:00:40;;;;;;;9.48;8.77;;;;;;;23.47;69.57;99405.59;10516778;28;20032;-76
2021/07/25 16:05:45;;;;;;;9.88;8.98;;;;;;;23.44;69.78;99427.34;10537866;28;20051;-77
2021/07/25 16:10:47;;;;;;;9.50;8.82;;;;;;;23.63;68.98;99423.75;10541928;28;20412;-77
2021/07/25 16:15:48;;;;;;;9.93;8.55;;;;;;;23.53;67.81;99422.94;10520329;28;20052;-76
2021/07/25 16:20:50;;;;;;;8.80;8.23;;;;;;;23.72;64.64;99430.09;10538753;28;20095;-76
2021/07/25 16:25:52;;;;;;;9.32;8.45;;;;;;;23.74;64.83;99438.88;10536799;28;20048;-77
2021/07/25 16:30:54;;;;;;;8.27;7.43;;;;;;;23.71;64.26;99434.63;10538622;28;20048;-76
2021/07/25 16:35:55;;;;;;;7.88;7.25;;;;;;;23.30;66.87;99446.56;10537184;28;20060;-76
2021/07/25 16:40:57;;;;;;;8.23;7.55;;;;;;;23.00;67.08;99459.16;10536501;28;20041;-75
2021/07/25 16:46:02;;;;;;;7.30;6.70;;;;;;;22.88;67.14;99450.38;10535035;28;20084;-74
2021/07/25 16:51:05;;;;;;;7.47;6.87;;;;;;;22.56;71.51;99453.34;10534754;28;20052;-74
2021/07/25 16:56:08;;;;;;;7.35;6.80;;;;;;;22.27;72.95;99461.34;10536049;28;20085;-74
2021/07/25 17:01:09;;;;;;;7.55;6.85;;;;;;;22.39;70.18;99445.97;10534008;28;20036;-74
2021/07/25 17:06:11;;;;;;;7.53;6.88;;;;;;;21.99;70.91;99440.63;10514796;28;20068;-73
2021/07/25 17:11:18;;;;;;;7.88;7.28;;;;;;;21.80;75.39;99425.38;10499432;28;20048;-74
2021/07/25 17:16:23;;;;;;;8.35;7.70;;;;;;;21.81;78.49;99419.03;10535036;28;20117;-73
2021/07/25 17:21:26;;;;;;;7.60;6.95;;;;;;;21.89;75.96;99412.03;10534273;28;20093;-74
2021/07/25 17:26:31;;;;;;;6.85;6.30;;;;;;;22.15;72.84;99411.56;10518405;28;20051;-73
2021/07/25 17:31:33;;;;;;;6.82;6.18;;;;;;;22.28;73.30;99403.28;10525618;28;20036;-73
2021/07/25 17:36:36;;;;;;;7.40;6.75;;;;;;;21.96;75.93;99390.94;10544973;28;20057;-73
2021/07/25 17:41:37;;;;;;;7.45;6.65;;;;;;;21.96;75.75;99374.88;10541980;28;20044;-74
2021/07/25 17:46:39;;;;;;;7.25;6.65;;;;;;;21.78;77.19;99368.47;10541051;28;20393;-74
2021/07/25 17:51:41;;;;;;;6.85;6.35;;;;;;;21.88;75.33;99391.59;10539742;28;20044;-73
2021/07/25 17:56:43;;;;;;;7.22;6.68;;;;;;;21.70;77.08;99393.25;10540068;28;20143;-73
2021/07/25 18:01:45;;;;;;;7.07;6.43;;;;;;;21.73;77.32;99389.44;10542508;28;20390;-75
2021/07/25 18:06:46;;;;;;;8.15;7.25;;;;;;;21.61;78.81;99407.41;10540291;28;20450;-73
2021/07/25 18:11:48;;;;;;;8.52;7.82;;;;;;;21.70;77.97;99424.50;10539472;28;20497;-75
2021/07/25 18:16:50;;;;;;;9.95;9.15;;;;;;;21.96;78.61;99449.81;10538772;28;20044;-73
2021/07/25 18:21:51;;;;;;;10.07;9.38;;;;;;;21.74;79.53;99472.25;10541794;28;20125;-75
2021/07/25 18:26:55;;;;;;;9.30;8.70;;;;;;;21.98;76.80;99497.81;10540550;28;20121;-75
2021/07/25 18:31:57;;;;;;;10.93;10.07;;;;;;;21.60;80.71;99494.84;10520920;28;20052;-73
2021/07/25 18:36:59;;;;;;;9.93;9.05;;;;;;;21.27;81.71;99495.84;10539349;28;20040;-73
2021/07/25 18:42:00;;;;;;;8.60;7.90;;;;;;;21.25;82.69;99488.91;10539651;28;20119;-74
2021/07/25 18:47:02;;;;;;;10.05;9.45;;;;;;;21.30;82.29;99482.22;10539475;28;20047;-74
2021/07/25 18:52:04;;;;;;;10.02;9.23;;;;;;;21.36;81.50;99486.22;10521906;28;20151;-73
2021/07/25 18:57:10;;;;;;;9.10;8.50;;;;;;;21.49;79.74;99494.91;10538028;28;20115;-74
2021/07/25 19:02:11;;;;;;;9.18;8.45;;;;;;;21.48;78.71;99495.88;10537342;28;20135;-74
2021/07/25 19:07:13;;;;;;;9.95;9.15;;;;;;;21.44;79.67;99497.13;10520003;28;20056;-74
2021/07/25 19:12:16;;;;;;;11.80;9.48;;;;;;;21.10;82.49;99502.59;10537308;28;20066;-74
2021/07/25 19:17:17;;;;;;;9.43;8.60;;;;;;;21.04;82.73;99503.13;10537390;28;20040;-74
2021/07/25 19:22:19;;;;;;;8.57;7.90;;;;;;;21.14;80.99;99505.88;10535866;28;20047;-75
2021/07/25 19:27:21;;;;;;;8.38;7.70;;;;;;;21.04;80.35;99505.78;10536987;28;20044;-73
2021/07/25 19:32:23;;;;;;;8.20;7.57;;;;;;;21.12;79.10;99499.81;10517988;28;20048;-74
2021/07/25 19:37:25;;;;;;;8.25;7.63;;;;;;;20.94;79.04;99507.56;10519236;28;20423;-74
2021/07/25 19:42:27;;;;;;;9.25;8.23;;;;;;;20.97;78.86;99501.94;10537918;28;20472;-75
2021/07/25 19:47:29;;;;;;;10.02;9.02;;;;;;;20.78;79.98;99507.97;10544332;28;20123;-74
2021/07/25 19:52:31;;;;;;;9.23;8.60;;;;;;;20.73;79.97;99496.81;10542210;28;20096;-75
2021/07/25 19:57:45;;;;;;;9.68;9.00;;;;;;;20.60;81.07;99499.63;10522801;28;20055;-75
2021/07/25 20:03:06;;;;;;;10.23;9.45;;;;;;;20.33;81.10;99492.03;10537800;28;20086;-76
2021/07/25 20:08:08;;;;;;;9.90;9.30;;;;;;;20.26;82.51;99492.63;10541560;28;20047;-75
2021/07/25 20:13:09;;;;;;;9.48;8.88;;;;;;;20.17;82.85;99486.22;10543021;28;20469;-75
2021/07/25 20:18:11;;;;;;;10.02;9.32;;;;;;;20.11;83.30;99489.38;10537904;28;20040;-75
2021/07/25 20:23:13;;;;;;;11.75;10.90;;;;;;;20.08;83.50;99487.78;10537320;28;20103;-75
2021/07/25 20:28:14;;;;;;;9.90;9.10;;;;;;;20.21;83.21;99489.50;10544398;22;20046;-75
2021/07/25 20:33:16;;;;;;;9.98;9.35;;;;;;;20.28;84.30;99488.03;10495738;28;20110;-75
2021/07/25 20:38:18;;;;;;;8.98;8.35;;;;;;;20.69;80.27;99481.16;10538453;28;20060;-75
2021/07/25 20:43:20;;;;;;;9.63;9.05;;;;;;;20.31;83.65;99483.28;10520016;28;20135;-76
2021/07/25 20:48:36;;;;;;;;;;;;;;;20.46;82.40;99467.00;10538415;28;20089;-74
2021/07/25 20:53:58;;;;;;;9.75;9.15;;;;;;;20.25;83.74;99456.25;10537646;28;19946;-75
2021/07/25 20:59:00;;;;;;;10.55;9.75;;;;;;;20.54;81.26;99454.75;10537715;28;20036;-76
2021/07/25 21:04:01;;;;;;;10.07;9.27;;;;;;;20.32;82.10;99452.09;10544508;28;20036;-74
2021/07/25 21:09:04;;;;;;;10.30;9.60;;;;;;;20.16;81.74;99464.03;10509479;28;20044;-75
2021/07/25 21:14:06;;;;;;;9.73;9.02;;;;;;;19.79;84.71;99479.44;10545522;28;20052;-77
2021/07/25 21:19:08;;;;;;;10.10;9.50;;;;;;;19.64;85.79;99478.81;10528255;28;20382;-76
2021/07/25 21:24:11;;;;;;;11.23;10.23;;;;;;;19.65;85.51;99479.66;10545429;28;20036;-75
2021/07/25 21:29:16;;;;;;;9.83;9.13;;;;;;;20.10;83.30;99485.88;10527180;28;20473;-77
2021/07/25 21:34:17;;;;;;;9.77;9.00;;;;;;;20.06;83.69;99495.09;10526161;28;20066;-76
2021/07/25 21:39:19;;;;;;;9.93;9.32;;;;;;;19.85;85.15;99504.78;10544721;28;20043;-76
2021/07/25 21:44:21;;;;;;;9.40;8.82;;;;;;;19.69;86.31;99513.13;10545161;28;20044;-76
2021/07/25 21:49:22;;;;;;;9.05;8.35;;;;;;;19.91;84.90;99523.81;10544588;28;20127;-76
2021/07/25 21:54:24;;;;;;;8.88;8.23;;;;;;;20.05;82.05;99524.53;10544247;28;20048;-77
2021/07/25 21:59:25;;;;;;;8.43;7.82;;;;;;;19.65;84.54;99506.31;10527342;28;20064;-76
2021/07/25 22:04:38;;;;;;;10.45;9.82;;;;;;;19.42;86.09;99498.25;10543910;28;20048;-77
2021/07/25 22:09:40;;;;;;;10.27;9.55;;;;;;;19.42;86.43;99494.75;10544342;28;20040;-78
2021/07/25 22:14:42;;;;;;;10.88;10.00;;;;;;;19.94;83.50;99489.88;10542626;28;20470;-77
2021/07/25 22:19:44;;;;;;;9.35;8.75;;;;;;;20.00;81.95;99489.38;10544169;28;20047;-77
2021/07/25 22:24:46;;;;;;;10.38;9.57;;;;;;;19.72;83.53;99494.22;10545877;28;20077;-77
2021/07/25 22:29:47;;;;;;;10.18;9.48;;;;;;;19.69;84.09;99502.44;10509935;28;20076;-77
2021/07/25 22:34:49;;;;;;;10.50;9.70;;;;;;;19.55;84.86;99487.50;10543704;28;20048;-76
2021/07/25 22:39:50;;;;;;;10.40;9.68;;;;;;;19.53;85.93;99489.44;10542113;28;20497;-76
2021/07/25 22:44:52;;;;;;;12.52;11.63;;;;;;;19.48;86.25;99494.28;10542942;28;20055;-76
2021/07/25 22:49:54;;;;;;;11.32;10.52;;;;;;;19.37;87.38;99497.75;10541363;28;20044;-76
2021/07/25 22:54:56;;;;;;;11.52;10.73;;;;;;;19.81;84.36;99492.66;10541790;28;20475;-76
2021/07/25 22:59:57;;;;;;;12.30;11.40;;;;;;;19.42;87.63;99487.59;10542731;28;20040;-76
2021/07/25 23:04:59;;;;;;;11.82;11.05;;;;;;;19.43;87.86;99485.78;10541429;28;20063;-76
2021/07/25 23:10:01;;;;;;;11.15;10.35;;;;;;;19.78;85.57;99487.56;10538769;28;20044;-74
2021/07/25 23:15:04;;;;;;;10.25;9.55;;;;;;;19.65;85.87;99485.84;10538710;28;20040;-76
2021/07/25 23:20:06;;;;;;;11.38;10.50;;;;;;;19.36;87.65;99498.75;10520263;28;20048;-75
2021/07/25 23:25:08;;;;;;;10.52;9.73;;;;;;;19.32;87.89;99504.41;10518627;28;20110;-75